Time;durP1;ratioP1;P1;durP2;ratioP2;P2;SDS_P1;SDS_P2;PMS_P1;PMS_P2;Temp;Humidity;BMP_temperature;BMP_pressure;BME280_temperature;BME280_humidity;BME280_pressure;Samples;Min_cycle;Max_cycle;Signal;HPM_P1;HPM_P2
2022/01/16 00:01:42;;;;;;;22.65;6.55;;;2.80;99.90;;;;;;5073781;28;20051;-75
2022/01/16 00:06:26;;;;;;;27.38;8.95;;;2.80;99.90;;;;;;5076085;28;20086;-76
2022/01/16 00:08:52;;;;;;;28.92;8.70;;;2.80;99.90;;;;;;5060848;28;20519;-78
2022/01/16 00:11:17;;;;;;;19.33;6.68;;;2.80;99.90;;;;;;5095618;28;20457;-77
2022/01/16 00:13:43;;;;;;;28.60;9.30;;;2.70;99.90;;;;;;5077322;28;20055;-77
2022/01/16 00:16:13;;;;;;;26.63;7.72;;;2.60;99.90;;;;;;5077065;28;20044;-77
2022/01/16 00:18:54;;;;;;;23.67;8.85;;;2.60;99.90;;;;;;5077110;28;20560;-77
2022/01/16 00:21:25;;;;;;;31.40;7.65;;;2.50;99.90;;;;;;5095505;28;20048;-77
2022/01/16 00:23:51;;;;;;;24.77;8.18;;;2.50;99.90;;;;;;5077069;28;20492;-77
2022/01/16 00:26:19;;;;;;;26.02;10.50;;;2.50;99.90;;;;;;5076990;28;20051;-77
2022/01/16 00:28:45;;;;;;;27.65;10.15;;;2.50;99.90;;;;;;5095360;28;20415;-77
2022/01/16 00:31:11;;;;;;;26.85;8.90;;;3.00;99.90;;;;;;5094701;28;20084;-77
2022/01/16 00:33:42;;;;;;;25.25;7.70;;;3.20;99.90;;;;;;5076967;28;20051;-77
2022/01/16 00:36:10;;;;;;;17.90;6.30;;;2.40;99.90;;;;;;5095389;28;20407;-76
2022/01/16 00:38:39;;;;;;;26.95;10.07;;;2.40;99.90;;;;;;5076955;28;20046;-77
2022/01/16 00:41:05;;;;;;;25.77;8.68;;;2.40;99.90;;;;;;5094948;28;20048;-77
2022/01/16 00:43:30;;;;;;;22.02;7.50;;;2.30;99.90;;;;;;5094918;28;20392;-76
2022/01/16 00:45:56;;;;;;;29.45;9.95;;;2.30;99.90;;;;;;5094912;28;20072;-76
2022/01/16 00:48:22;;;;;;;30.55;11.27;;;2.20;99.90;;;;;;5075813;28;20058;-75
2022/01/16 00:50:47;;;;;;;32.05;9.18;;;2.10;99.90;;;;;;5059431;28;20131;-76
2022/01/16 00:53:13;;;;;;;25.50;9.02;;;2.10;99.90;;;;;;5094734;28;20425;-77
2022/01/16 00:55:40;;;;;;;27.50;11.00;;;2.10;99.90;;;;;;5094609;28;20062;-77
2022/01/16 00:58:06;;;;;;;26.55;8.50;;;2.10;99.90;;;;;;5076722;28;20056;-75
2022/01/16 01:00:32;;;;;;;36.58;11.38;;;2.00;99.90;;;;;;5094697;28;20063;-75
2022/01/16 01:02:59;;;;;;;30.48;11.25;;;2.00;99.90;;;;;;5094323;28;20476;-76
2022/01/16 01:05:25;;;;;;;25.25;10.30;;;2.00;99.90;;;;;;5097338;28;20054;-75
2022/01/16 01:07:51;;;;;;;29.88;10.15;;;2.00;99.90;;;;;;5103976;28;20418;-76
2022/01/16 01:10:18;;;;;;;37.78;12.82;;;2.00;99.90;;;;;;5098300;28;20173;-74
2022/01/16 01:12:53;;;;;;;35.38;12.50;;;1.90;99.90;;;;;;5077851;28;20056;-73
2022/01/16 01:15:29;;;;;;;28.92;10.80;;;1.90;99.90;;;;;;5097010;28;20487;-75
2022/01/16 01:17:56;;;;;;;31.02;10.50;;;1.90;99.90;;;;;;5093688;28;20047;-74
2022/01/16 01:20:24;;;;;;;32.28;9.60;;;1.90;99.90;;;;;;5094510;28;20063;-74
2022/01/16 01:22:52;;;;;;;31.42;10.10;;;1.90;99.90;;;;;;5094116;28;20075;-74
2022/01/16 01:25:18;;;;;;;24.50;9.90;;;1.90;99.90;;;;;;5058854;28;20064;-75
2022/01/16 01:27:44;;;;;;;42.28;10.00;;;1.80;99.90;;;;;;5094330;28;20043;-74
2022/01/16 01:30:16;;;;;;;29.10;9.40;;;1.90;99.90;;;;;;5076040;28;20129;-73
2022/01/16 01:32:43;;;;;;;25.92;8.77;;;1.80;99.90;;;;;;5093964;28;20054;-75
2022/01/16 01:35:11;;;;;;;27.50;11.95;;;2.20;99.90;;;;;;5093684;28;20090;-75
2022/01/16 01:37:37;;;;;;;32.88;9.40;;;2.20;99.90;;;;;;5093829;28;20048;-74
2022/01/16 01:40:07;;;;;;;24.25;7.13;;;2.60;99.90;;;;;;5075724;28;20100;-72
2022/01/16 01:42:42;;;;;;;30.30;10.65;;;1.80;99.90;;;;;;5093753;28;20036;-74
2022/01/16 01:51:05;;;;;;;29.00;13.35;;;1.80;99.90;;;;;;5030984;28;20048;-72
2022/01/16 01:53:31;;;;;;;30.48;10.93;;;1.70;99.90;;;;;;5031273;28;20049;-73
2022/01/16 01:55:57;;;;;;;42.25;15.23;;;1.70;99.90;;;;;;5031427;28;20163;-73
2022/01/16 01:58:22;;;;;;;40.38;15.77;;;1.60;99.90;;;;;;5014662;28;20049;-74
2022/01/16 02:00:48;;;;;;;53.50;17.98;;;1.60;99.90;;;;;;5031215;28;20120;-73
2022/01/16 02:03:24;;;;;;;48.40;17.63;;;1.60;99.90;;;;;;5014569;28;20057;-73
2022/01/16 02:05:50;;;;;;;51.10;17.88;;;1.60;99.90;;;;;;5030550;28;20176;-76
2022/01/16 02:08:16;;;;;;;48.35;18.65;;;1.60;99.90;;;;;;5031078;28;20128;-76
2022/01/16 02:10:42;;;;;;;55.72;17.73;;;1.60;99.90;;;;;;5030877;28;20045;-76
2022/01/16 02:13:12;;;;;;;50.08;17.67;;;1.60;99.90;;;;;;5031027;28;20041;-76
2022/01/16 02:27:57;;;;;;;49.40;16.50;;;1.60;99.90;;;;;;5014407;28;20053;-77
2022/01/16 02:30:17;;;;;;;51.22;18.38;;;1.60;99.90;;;;;;5030386;28;20050;-76
2022/01/16 02:34:53;;;;;;;44.10;17.38;;;1.50;99.90;;;;;;5030643;28;20138;-74
2022/01/16 02:37:23;;;;;;;45.13;16.88;;;2.30;99.90;;;;;;5029698;28;20478;-77
2022/01/16 02:39:51;;;;;;;44.88;17.38;;;1.40;99.90;;;;;;5030428;28;20056;-74
2022/01/16 02:42:18;;;;;;;47.22;17.10;;;1.40;99.90;;;;;;5030420;28;20116;-76
2022/01/16 02:44:49;;;;;;;46.90;16.52;;;1.40;99.90;;;;;;5030419;28;20058;-75
2022/01/16 02:47:19;;;;;;;50.85;17.88;;;1.40;99.90;;;;;;5030570;28;20045;-72
2022/01/16 02:49:49;;;;;;;42.13;16.90;;;1.40;99.90;;;;;;5030492;28;20053;-72
2022/01/16 02:52:18;;;;;;;44.92;17.73;;;1.30;99.90;;;;;;5030033;28;20081;-76
2022/01/16 02:54:46;;;;;;;46.03;17.38;;;1.40;99.90;;;;;;5013846;28;20049;-71
2022/01/16 02:57:15;;;;;;;42.42;15.63;;;1.30;99.90;;;;;;5030470;28;20072;-74
2022/01/16 02:59:47;;;;;;;42.08;15.88;;;1.40;99.90;;;;;;5030351;28;20047;-72
2022/01/16 03:02:14;;;;;;;51.25;18.45;;;1.30;99.90;;;;;;5030359;28;20048;-73
2022/01/16 03:04:40;;;;;;;47.60;15.50;;;1.30;99.90;;;;;;5085075;28;20139;-74
2022/01/16 03:07:06;;;;;;;41.90;16.88;;;1.40;99.90;;;;;;5074267;28;20044;-73
2022/01/16 03:09:55;;;;;;;49.55;16.75;;;1.30;99.90;;;;;;5074220;28;20052;-73
2022/01/16 03:12:18;;;;;;;47.78;17.83;;;1.30;99.90;;;;;;5091972;28;20105;-74
2022/01/16 03:14:44;;;;;;;49.75;17.95;;;1.30;99.90;;;;;;5092543;28;20048;-74
2022/01/16 03:17:11;;;;;;;45.38;16.13;;;1.30;99.90;;;;;;5056977;28;20044;-75
2022/01/16 03:22:21;;;;;;;52.72;16.95;;;1.30;99.90;;;;;;5074030;28;20048;-73
2022/01/16 03:24:47;;;;;;;53.60;16.80;;;1.30;99.90;;;;;;5091696;28;20043;-73
2022/01/16 03:27:17;;;;;;;57.67;18.10;;;1.30;99.90;;;;;;5092269;28;20044;-74
2022/01/16 03:29:57;;;;;;;59.63;18.58;;;1.30;99.90;;;;;;5092489;28;20051;-73
2022/01/16 03:32:23;;;;;;;51.72;18.80;;;1.60;99.90;;;;;;5074367;28;20040;-75
2022/01/16 03:34:49;;;;;;;57.25;17.23;;;1.30;99.90;;;;;;5092281;28;20498;-74
2022/01/16 03:37:15;;;;;;;52.05;19.10;;;1.30;99.90;;;;;;5092246;28;20044;-74
2022/01/16 03:39:41;;;;;;;52.00;18.33;;;1.30;99.90;;;;;;5091859;28;20437;-73
2022/01/16 03:42:07;;;;;;;58.50;19.42;;;1.30;99.90;;;;;;5095558;28;20127;-74
2022/01/16 03:44:33;;;;;;;60.80;19.42;;;1.30;99.90;;;;;;5078081;28;20044;-73
2022/01/16 03:47:00;;;;;;;61.60;19.98;;;1.30;99.90;;;;;;5077643;28;20502;-75
2022/01/16 03:49:28;;;;;;;52.95;17.90;;;1.30;99.90;;;;;;5096011;28;20036;-72
2022/01/16 03:51:56;;;;;;;62.53;19.45;;;1.40;99.90;;;;;;5096121;28;20052;-74
2022/01/16 03:54:26;;;;;;;57.03;21.23;;;1.30;99.90;;;;;;5095581;28;20051;-73
2022/01/16 03:56:52;;;;;;;53.10;18.95;;;1.40;99.90;;;;;;5095608;28;20044;-73
2022/01/16 03:59:18;;;;;;;56.70;19.48;;;1.40;99.90;;;;;;5096025;28;20127;-74
2022/01/16 04:01:44;;;;;;;63.25;20.40;;;1.30;99.90;;;;;;5095749;28;20036;-74
2022/01/16 04:04:10;;;;;;;56.92;19.40;;;1.40;99.90;;;;;;5077550;28;20044;-74
2022/01/16 04:06:36;;;;;;;63.47;19.52;;;1.40;99.90;;;;;;5095649;28;20040;-73
2022/01/16 04:09:03;;;;;;;62.70;20.95;;;1.40;99.90;;;;;;5077525;28;20466;-74
2022/01/16 04:11:30;;;;;;;53.88;20.08;;;1.40;99.90;;;;;;5077433;28;20384;-75
2022/01/16 04:14:14;;;;;;;62.75;20.73;;;1.40;99.90;;;;;;5095611;28;20043;-74
2022/01/16 04:16:39;;;;;;;58.85;21.70;;;1.40;99.90;;;;;;5095587;28;20087;-75
2022/01/16 04:19:05;;;;;;;63.95;20.40;;;1.40;99.90;;;;;;5077179;28;20083;-74
2022/01/16 04:21:31;;;;;;;64.50;20.08;;;1.40;99.90;;;;;;5095237;28;20079;-74
2022/01/16 04:23:57;;;;;;;63.45;19.42;;;1.40;99.90;;;;;;5095448;28;20044;-76
2022/01/16 04:26:25;;;;;;;61.38;19.95;;;1.40;99.90;;;;;;5094819;28;20178;-73
2022/01/16 04:28:51;;;;;;;61.08;19.10;;;1.40;99.90;;;;;;5095357;28;20047;-74
2022/01/16 04:31:17;;;;;;;66.72;19.70;;;1.40;99.90;;;;;;5076935;28;20048;-72
2022/01/16 04:33:44;;;;;;;57.40;17.38;;;1.50;99.90;;;;;;5076413;28;20082;-74
2022/01/16 04:36:11;;;;;;;53.05;17.38;;;1.50;99.90;;;;;;5095021;28;20044;-74
2022/01/16 04:38:41;;;;;;;61.03;20.08;;;1.50;99.90;;;;;;5095247;28;20072;-75
2022/01/16 04:43:52;;;;;;;61.65;20.25;;;1.50;99.90;;;;;;5094723;28;20384;-77
2022/01/16 04:46:20;;;;;;;62.58;18.73;;;1.60;99.90;;;;;;5094777;28;20125;-77
2022/01/16 04:48:47;;;;;;;62.33;19.65;;;1.60;99.90;;;;;;5094769;28;20044;-77
2022/01/16 04:51:14;;;;;;;53.78;18.60;;;1.60;99.90;;;;;;5094464;28;20527;-75
2022/01/16 04:53:41;;;;;;;53.53;17.17;;;1.60;99.90;;;;;;5095146;28;20392;-76
2022/01/16 04:56:08;;;;;;;72.40;21.35;;;1.60;99.90;;;;;;5094633;28;20046;-76
2022/01/16 04:58:35;;;;;;;67.50;20.70;;;1.70;99.90;;;;;;5094366;28;20101;-75
2022/01/16 05:01:01;;;;;;;64.45;22.00;;;1.70;99.90;;;;;;5094550;28;20495;-76
2022/01/16 05:03:28;;;;;;;61.72;20.63;;;1.70;99.90;;;;;;5094622;28;20052;-77
2022/01/16 05:05:55;;;;;;;71.75;21.67;;;1.70;99.90;;;;;;5097571;28;20044;-76
2022/01/16 05:08:21;;;;;;;60.67;18.23;;;1.70;99.90;;;;;;5100021;28;20045;-74
2022/01/16 05:10:46;;;;;;;70.68;20.55;;;1.80;99.90;;;;;;5099895;28;20514;-77
2022/01/16 05:18:31;;;;;;;67.10;21.55;;;1.90;99.90;;;;;;5094273;28;20070;-76
2022/01/16 05:20:57;;;;;;;61.00;19.08;;;1.90;99.90;;;;;;5094101;28;20055;-76
2022/01/16 05:23:23;;;;;;;61.03;19.88;;;1.90;99.90;;;;;;5094296;28;20040;-73
2022/01/16 05:25:48;;;;;;;71.82;22.58;;;2.00;99.90;;;;;;5076188;28;20055;-75
2022/01/16 05:28:14;;;;;;;60.28;19.20;;;2.00;99.90;;;;;;5094034;28;20044;-74
2022/01/16 05:30:39;;;;;;;68.68;20.27;;;2.00;99.90;;;;;;5093643;28;20044;-73
2022/01/16 05:33:05;;;;;;;71.57;21.85;;;2.00;99.90;;;;;;5093835;28;20514;-74
2022/01/16 05:35:31;;;;;;;71.78;19.88;;;2.10;99.90;;;;;;5094008;28;20043;-75
2022/01/16 05:37:56;;;;;;;61.45;20.00;;;2.10;99.90;;;;;;5094101;28;20499;-73
2022/01/16 05:40:22;;;;;;;74.25;20.23;;;2.10;99.90;;;;;;5093952;28;20051;-74
2022/01/16 05:42:47;;;;;;;74.65;23.85;;;2.10;99.90;;;;;;5093652;28;20045;-74
2022/01/16 05:45:13;;;;;;;84.07;22.63;;;2.10;99.90;;;;;;5093508;28;20032;-76
2022/01/16 05:47:39;;;;;;;71.25;19.75;;;2.50;99.90;;;;;;5093581;28;20040;-76
2022/01/16 05:50:05;;;;;;;75.03;21.27;;;2.60;99.90;;;;;;5093682;28;20131;-76
2022/01/16 05:52:31;;;;;;;70.93;22.42;;;2.20;99.90;;;;;;5075567;28;20058;-75
2022/01/16 05:54:57;;;;;;;67.25;20.85;;;2.20;99.90;;;;;;5093479;28;20395;-75
2022/01/16 05:57:22;;;;;;;68.35;20.10;;;2.20;99.90;;;;;;5093699;28;20040;-74
2022/01/16 05:59:48;;;;;;;68.43;18.48;;;2.20;99.90;;;;;;5093673;28;20067;-74
2022/01/16 06:02:13;;;;;;;66.18;19.27;;;2.30;99.90;;;;;;5093026;28;20429;-76
2022/01/16 06:04:39;;;;;;;61.90;19.35;;;2.30;99.90;;;;;;5092943;28;20091;-75
2022/01/16 06:07:06;;;;;;;72.78;20.42;;;2.30;99.90;;;;;;5075412;28;20051;-77
2022/01/16 06:09:32;;;;;;;69.57;20.48;;;2.30;99.90;;;;;;5093132;28;20526;-73
2022/01/16 06:11:58;;;;;;;78.25;20.02;;;2.30;99.90;;;;;;5093253;28;20051;-73
2022/01/16 06:14:24;;;;;;;68.97;20.13;;;2.40;99.90;;;;;;5093240;28;20048;-73
2022/01/16 06:16:51;;;;;;;68.70;20.40;;;2.40;99.90;;;;;;5092805;28;20539;-73
2022/01/16 06:19:18;;;;;;;72.72;20.50;;;2.40;99.90;;;;;;5092862;28;20070;-72
2022/01/16 06:21:43;;;;;;;71.03;22.05;;;2.40;99.90;;;;;;5075348;28;20063;-73
2022/01/16 06:24:09;;;;;;;70.38;21.98;;;2.40;99.90;;;;;;5093016;28;20436;-73
2022/01/16 06:26:35;;;;;;;70.25;21.42;;;2.40;99.90;;;;;;5075082;28;20044;-73
2022/01/16 06:29:00;;;;;;;66.47;22.77;;;2.50;99.90;;;;;;5093117;28;20052;-73
2022/01/16 06:31:26;;;;;;;72.47;20.30;;;2.50;99.90;;;;;;5092901;28;20040;-74
2022/01/16 06:33:52;;;;;;;64.28;19.88;;;2.50;99.90;;;;;;5092537;28;20043;-73
2022/01/16 06:36:18;;;;;;;71.68;22.02;;;2.50;99.90;;;;;;5092994;28;20101;-74
2022/01/16 06:38:43;;;;;;;59.63;19.48;;;2.50;99.90;;;;;;5092915;28;20047;-75
2022/01/16 06:41:10;;;;;;;64.55;21.95;;;2.50;99.90;;;;;;5092983;28;20052;-76
2022/01/16 06:43:35;;;;;;;59.03;21.48;;;2.50;99.90;;;;;;5074753;28;20373;-76
2022/01/16 06:46:01;;;;;;;71.47;21.65;;;2.50;99.90;;;;;;5093166;28;20044;-73
2022/01/16 06:48:27;;;;;;;68.82;22.00;;;2.60;99.90;;;;;;5074483;28;20376;-72
2022/01/16 06:50:53;;;;;;;63.92;23.15;;;2.50;99.90;;;;;;5092689;28;20047;-73
2022/01/16 06:53:18;;;;;;;68.90;21.50;;;2.60;99.90;;;;;;5074621;28;20044;-73
2022/01/16 06:55:44;;;;;;;67.03;23.33;;;2.60;99.90;;;;;;5074729;28;20051;-73
2022/01/16 06:58:10;;;;;;;66.25;22.40;;;2.60;99.90;;;;;;5095677;28;20047;-77
2022/01/16 07:00:35;;;;;;;74.40;23.67;;;2.60;99.90;;;;;;5092848;28;20072;-77
2022/01/16 07:03:01;;;;;;;76.78;24.42;;;2.60;99.90;;;;;;5074314;28;20055;-77
2022/01/16 07:05:27;;;;;;;72.07;22.35;;;2.60;99.90;;;;;;5092137;28;20084;-77
2022/01/16 07:07:52;;;;;;;70.15;23.90;;;2.70;99.90;;;;;;5074671;28;20048;-76
2022/01/16 07:10:18;;;;;;;69.65;24.30;;;2.70;99.90;;;;;;5092410;28;20126;-77
2022/01/16 07:12:44;;;;;;;71.13;22.85;;;2.70;99.90;;;;;;5092698;28;20048;-75
2022/01/16 07:15:10;;;;;;;74.88;23.63;;;2.70;99.90;;;;;;5094191;28;20548;-77
2022/01/16 07:17:36;;;;;;;70.15;23.35;;;2.70;99.90;;;;;;5078207;28;20051;-76
2022/01/16 07:20:02;;;;;;;67.10;23.00;;;2.70;99.90;;;;;;5095813;28;20070;-78
2022/01/16 07:22:28;;;;;;;80.38;25.17;;;2.70;99.90;;;;;;5096378;28;20073;-78
2022/01/16 07:24:54;;;;;;;49.33;17.58;;;2.80;99.90;;;;;;5096569;28;20048;-77
2022/01/16 07:27:20;;;;;;;40.90;15.85;;;2.70;99.90;;;;;;5096442;28;20044;-77
2022/01/16 07:29:46;;;;;;;34.75;12.02;;;2.80;99.90;;;;;;5096541;28;20040;-74
2022/01/16 07:32:12;;;;;;;47.95;15.43;;;2.80;99.90;;;;;;5078236;28;20056;-77
2022/01/16 07:34:38;;;;;;;46.97;14.98;;;2.80;99.90;;;;;;5078320;28;20385;-77
2022/01/16 07:37:04;;;;;;;47.83;15.48;;;2.80;99.90;;;;;;5078177;28;20052;-76
2022/01/16 07:39:29;;;;;;;41.22;13.27;;;2.90;99.90;;;;;;5078147;28;20055;-78
2022/01/16 07:41:55;;;;;;;44.03;13.63;;;2.90;99.90;;;;;;5096255;28;20392;-77
2022/01/16 07:44:21;;;;;;;52.25;14.07;;;2.90;99.90;;;;;;5096296;28;20135;-74
2022/01/16 07:46:47;;;;;;;40.70;13.20;;;2.90;99.90;;;;;;5077041;28;20048;-76
2022/01/16 07:49:12;;;;;;;42.45;14.30;;;2.90;99.90;;;;;;5094450;28;20055;-75
2022/01/16 07:51:38;;;;;;;44.33;15.70;;;2.90;99.90;;;;;;5094455;28;20119;-77
2022/01/16 07:54:04;;;;;;;44.80;13.73;;;3.50;99.90;;;;;;5096364;28;20124;-77
2022/01/16 07:56:30;;;;;;;53.70;15.45;;;3.00;99.90;;;;;;5077995;28;20056;-76
2022/01/16 07:58:55;;;;;;;40.35;14.90;;;3.00;99.90;;;;;;5077683;28;20051;-78
2022/01/16 08:01:21;;;;;;;56.97;17.40;;;3.00;99.90;;;;;;5094308;28;20075;-74
2022/01/16 08:03:47;;;;;;;45.47;13.20;;;3.00;99.90;;;;;;5094631;28;20122;-77
2022/01/16 08:06:16;;;;;;;44.70;15.52;;;3.10;99.90;;;;;;5094129;28;20085;-78
2022/01/16 08:08:41;;;;;;;53.08;15.77;;;4.00;99.90;;;;;;5059743;28;20105;-79
2022/01/16 08:11:09;;;;;;;43.83;14.98;;;3.10;99.90;;;;;;5094610;28;20048;-78
2022/01/16 08:13:38;;;;;;;68.57;18.65;;;4.20;99.90;;;;;;5094622;28;20044;-78
2022/01/16 08:16:07;;;;;;;54.58;17.50;;;3.20;99.90;;;;;;5075688;28;20408;-78
2022/01/16 08:18:34;;;;;;;58.30;17.50;;;3.20;99.90;;;;;;5094848;28;20369;-79
2022/01/16 08:21:00;;;;;;;62.53;19.10;;;3.20;99.90;;;;;;5094258;28;20044;-79
2022/01/16 08:23:26;;;;;;;64.00;19.42;;;3.60;99.90;;;;;;5095523;28;20040;-77
2022/01/16 08:25:54;;;;;;;56.17;17.48;;;3.30;99.90;;;;;;5060681;28;20384;-78
2022/01/16 08:28:20;;;;;;;61.20;18.67;;;3.30;99.90;;;;;;5095914;28;20047;-79
2022/01/16 08:30:45;;;;;;;55.42;18.38;;;3.30;99.90;;;;;;5097713;28;20047;-79
2022/01/16 08:33:13;;;;;;;47.70;17.48;;;3.40;99.90;;;;;;5096999;28;20036;-77
2022/01/16 08:35:39;;;;;;;49.70;16.45;;;4.80;99.90;;;;;;5097562;28;20075;-74
2022/01/16 08:38:06;;;;;;;58.58;16.23;;;3.40;99.90;;;;;;5096196;28;20737;-77
2022/01/16 08:40:32;;;;;;;44.85;15.40;;;3.40;99.90;;;;;;5094310;28;20044;-78
2022/01/16 08:42:58;;;;;;;47.63;15.43;;;3.50;99.90;;;;;;5093836;28;20040;-77
2022/01/16 08:45:24;;;;;;;50.13;14.35;;;3.50;99.90;;;;;;5093888;28;20036;-76
2022/01/16 08:47:50;;;;;;;50.55;15.05;;;3.50;99.90;;;;;;5095805;28;20052;-75
2022/01/16 08:50:16;;;;;;;48.65;15.35;;;4.80;99.90;;;;;;5092372;28;20456;-76
2022/01/16 08:52:42;;;;;;;46.58;15.40;;;4.90;99.90;;;;;;5103225;28;20044;-79
2022/01/16 08:55:10;;;;;;;43.17;13.90;;;4.70;99.90;;;;;;5077693;28;20122;-76
2022/01/16 08:57:36;;;;;;;40.55;13.25;;;4.60;99.90;;;;;;5097379;28;20044;-73
2022/01/16 09:00:04;;;;;;;38.50;13.02;;;3.70;99.90;;;;;;5093902;28;20075;-77
2022/01/16 09:02:30;;;;;;;49.63;15.43;;;3.70;99.90;;;;;;5094136;28;20032;-73
2022/01/16 09:04:55;;;;;;;46.40;14.30;;;3.80;99.90;;;;;;5093242;28;20411;-78
2022/01/16 09:07:21;;;;;;;46.97;14.55;;;3.80;99.90;;;;;;5092843;28;20036;-74
2022/01/16 09:09:47;;;;;;;53.03;15.50;;;3.90;99.90;;;;;;5092441;28;20488;-73
2022/01/16 09:12:12;;;;;;;50.00;16.08;;;3.90;99.90;;;;;;5092685;28;20459;-78
2022/01/16 09:14:38;;;;;;;60.78;16.65;;;3.90;99.90;;;;;;5092791;28;20107;-74
2022/01/16 09:17:04;;;;;;;46.38;14.63;;;4.70;99.90;;;;;;5092562;28;20044;-78
2022/01/16 09:19:30;;;;;;;48.72;16.42;;;4.10;99.90;;;;;;5092182;28;20063;-74
2022/01/16 09:21:56;;;;;;;50.28;15.68;;;4.10;99.90;;;;;;5092359;28;20044;-73
2022/01/16 09:24:22;;;;;;;41.83;14.43;;;4.20;99.90;;;;;;5073074;28;20082;-73
2022/01/16 09:26:56;;;;;;;46.60;15.32;;;4.30;99.90;;;;;;5091958;28;20462;-77
2022/01/16 09:29:22;;;;;;;44.45;15.95;;;4.30;99.90;;;;;;5089849;28;20050;-75
2022/01/16 09:31:48;;;;;;;47.80;15.80;;;5.60;99.90;;;;;;5073598;28;20490;-78
2022/01/16 09:34:13;;;;;;;41.80;14.63;;;5.70;99.90;;;;;;5091930;28;20123;-78
2022/01/16 09:36:40;;;;;;;42.72;15.30;;;4.40;99.90;;;;;;5093106;28;20072;-77
2022/01/16 09:39:06;;;;;;;53.40;14.95;;;4.50;99.90;;;;;;5092649;28;20036;-76
2022/01/16 09:41:31;;;;;;;48.80;14.45;;;4.50;99.90;;;;;;5093386;28;20400;-76
2022/01/16 09:43:57;;;;;;;39.92;14.73;;;4.50;99.90;;;;;;5094163;28;20040;-77
2022/01/16 09:46:23;;;;;;;46.67;16.67;;;4.50;99.90;;;;;;5092973;28;20048;-80
2022/01/16 09:48:48;;;;;;;45.05;15.38;;;4.60;99.90;;;;;;5092854;28;20043;-78
2022/01/16 09:51:14;;;;;;;41.67;14.88;;;4.60;99.90;;;;;;5074736;28;20084;-80
2022/01/16 09:53:42;;;;;;;45.25;15.85;;;4.60;99.90;;;;;;5092978;28;20039;-79
2022/01/16 09:56:08;;;;;;;41.13;15.25;;;4.70;99.90;;;;;;5092851;28;20042;-79
2022/01/16 09:58:34;;;;;;;57.75;15.63;;;4.70;99.90;;;;;;5075393;28;20091;-79
2022/01/16 10:01:00;;;;;;;49.60;16.35;;;5.20;99.90;;;;;;5093877;28;20073;-78
2022/01/16 10:03:43;;;;;;;38.72;14.70;;;4.90;99.90;;;;;;5074685;28;20048;-78
2022/01/16 10:06:13;;;;;;;38.90;15.38;;;4.90;99.90;;;;;;5091894;28;20054;-78
2022/01/16 10:08:40;;;;;;;40.88;14.52;;;5.00;99.90;;;;;;5094150;28;20039;-78
2022/01/16 10:11:29;;;;;;;43.72;14.68;;;5.40;99.90;;;;;;5075814;28;20462;-78
2022/01/16 10:14:01;;;;;;;39.53;15.05;;;5.10;99.90;;;;;;5093501;28;20121;-79
2022/01/16 10:16:36;;;;;;;35.40;14.73;;;5.10;99.90;;;;;;5075048;28;20047;-79
2022/01/16 10:19:04;;;;;;;36.35;14.00;;;5.50;99.90;;;;;;5075424;28;20048;-80
2022/01/16 10:21:38;;;;;;;34.53;12.05;;;5.20;99.90;;;;;;5093900;28;20089;-77
2022/01/16 10:24:25;;;;;;;37.33;14.95;;;5.20;99.90;;;;;;5075214;28;20131;-79
2022/01/16 10:29:26;;;;;;;40.13;14.48;;;5.20;99.90;;;;;;5106267;22;20051;-76
2022/01/16 10:32:13;;;;;;;42.30;13.50;;;5.20;99.90;;;;;;5092149;28;20067;-77
2022/01/16 10:34:40;;;;;;;35.20;12.63;;;5.20;99.90;;;;;;5091637;28;20036;-77
2022/01/16 10:37:26;;;;;;;35.67;13.68;;;5.20;99.90;;;;;;5073515;28;20803;-77
2022/01/16 10:40:07;;;;;;;42.80;16.30;;;5.20;99.90;;;;;;5058044;28;20399;-77
2022/01/16 10:42:33;;;;;;;36.90;14.25;;;5.20;99.90;;;;;;5090745;28;20036;-78
2022/01/16 10:45:14;;;;;;;40.65;14.98;;;5.20;99.90;;;;;;5092270;28;20040;-78
2022/01/16 10:47:41;;;;;;;30.80;13.68;;;5.30;99.90;;;;;;5078209;28;20063;-74
2022/01/16 10:50:38;;;;;;;41.00;16.90;;;5.30;99.90;;;;;;5092918;28;20446;-80
2022/01/16 10:53:19;;;;;;;36.28;15.25;;;5.40;99.90;;;;;;4994426;28;20413;-79
2022/01/16 10:55:47;;;;;;;33.65;13.85;;;5.40;99.90;;;;;;5010600;28;20453;-78
2022/01/16 10:58:35;;;;;;;43.10;16.90;;;5.40;99.90;;;;;;5010089;28;20566;-80
2022/01/16 11:01:08;;;;;;;34.08;14.30;;;5.50;99.90;;;;;;5010638;28;20453;-80
2022/01/16 11:03:45;;;;;;;27.17;12.00;;;5.50;99.90;;;;;;5010473;28;20080;-79
2022/01/16 11:06:12;;;;;;;30.45;13.60;;;5.50;99.90;;;;;;5010444;28;20398;-80
2022/01/16 11:08:39;;;;;;;29.00;12.15;;;5.50;99.90;;;;;;5010509;28;20050;-80
2022/01/16 11:11:07;;;;;;;33.47;13.90;;;5.50;99.90;;;;;;4993464;28;20069;-80
2022/01/16 11:13:35;;;;;;;29.13;10.73;;;5.60;99.90;;;;;;5010129;28;20050;-80
2022/01/16 11:16:07;;;;;;;33.30;12.07;;;5.60;99.90;;;;;;5010179;28;20120;-80
2022/01/16 11:18:35;;;;;;;25.02;10.43;;;5.60;99.90;;;;;;5010362;28;20041;-80
2022/01/16 11:21:13;;;;;;;29.40;11.38;;;5.60;99.90;;;;;;5009843;28;20150;-79
2022/01/16 11:23:59;;;;;;;30.70;11.43;;;5.60;99.90;;;;;;4990572;28;20113;-80
2022/01/16 11:26:27;;;;;;;23.08;9.40;;;5.60;99.90;;;;;;4990595;28;20578;-75
2022/01/16 11:28:54;;;;;;;29.35;10.80;;;5.70;99.90;;;;;;5013238;28;20048;-74
2022/01/16 11:31:21;;;;;;;32.95;10.60;;;5.70;99.90;;;;;;5053900;28;20401;-74
2022/01/16 11:33:47;;;;;;;32.65;15.05;;;5.70;99.90;;;;;;5071841;28;20499;-75
2022/01/16 11:36:19;;;;;;;37.53;15.15;;;5.70;99.90;;;;;;5054019;28;20044;-75
2022/01/16 11:38:58;;;;;;;;;;;5.90;99.90;;;;;;5072736;28;20040;-74
2022/01/16 11:41:34;;;;;;;27.85;13.75;;;5.80;99.90;;;;;;5053267;28;20357;-74
2022/01/16 11:44:08;;;;;;;27.05;11.65;;;5.80;99.90;;;;;;5054046;28;20045;-74
2022/01/16 11:46:50;;;;;;;32.42;13.38;;;5.80;99.90;;;;;;5071337;28;20048;-74
2022/01/16 11:49:19;;;;;;;33.17;14.15;;;5.80;99.90;;;;;;5072030;28;20041;-79
2022/01/16 11:51:51;;;;;;;31.05;12.20;;;5.80;99.90;;;;;;5036852;28;20061;-79
2022/01/16 11:54:33;;;;;;;29.15;11.93;;;6.10;99.90;;;;;;5036981;28;20063;-76
2022/01/16 11:57:04;;;;;;;;;;;5.90;99.90;;;;;;5072586;28;20052;-79
2022/01/16 11:59:40;;;;;;;27.50;11.77;;;5.90;99.90;;;;;;5072284;28;19924;-79
2022/01/16 12:02:17;;;;;;;30.77;12.85;;;6.00;99.90;;;;;;5073456;28;20063;-78
2022/01/16 12:04:55;;;;;;;30.65;12.00;;;5.90;99.90;;;;;;5075479;28;20052;-78
2022/01/16 12:07:21;;;;;;;24.23;9.52;;;5.90;99.90;;;;;;5075351;28;20052;-77
2022/01/16 12:12:12;;;;;;;27.80;10.82;;;5.90;99.90;;;;;;5075182;28;20062;-76
2022/01/16 12:14:55;;;;;;;21.20;10.38;;;5.90;99.90;;;;;;5057586;28;20044;-77
2022/01/16 12:17:27;;;;;;;24.13;9.65;;;5.90;99.90;;;;;;5040604;28;20515;-73
2022/01/16 12:19:54;;;;;;;25.10;10.50;;;5.90;99.90;;;;;;5075608;28;20076;-74
2022/01/16 12:22:43;;;;;;;20.67;9.18;;;5.90;99.90;;;;;;5080542;28;20087;-73
2022/01/16 12:25:23;;;;;;;22.77;8.65;;;5.90;99.90;;;;;;5079298;28;20381;-72
2022/01/16 12:28:06;;;;;;;20.15;9.05;;;5.90;99.90;;;;;;5078566;28;20408;-75
2022/01/16 12:30:55;;;;;;;23.38;9.93;;;5.90;99.90;;;;;;5058246;28;20079;-74
2022/01/16 12:33:39;;;;;;;22.60;9.02;;;5.90;99.90;;;;;;5074909;28;20108;-75
2022/01/16 12:36:11;;;;;;;26.50;9.23;;;5.90;99.90;;;;;;5056473;28;20064;-76
2022/01/16 12:38:41;;;;;;;24.50;9.15;;;6.10;99.90;;;;;;5056908;28;20075;-78
2022/01/16 12:41:24;;;;;;;22.13;8.05;;;5.90;99.90;;;;;;5074777;28;20045;-76
2022/01/16 12:43:57;;;;;;;21.85;8.00;;;6.00;99.90;;;;;;5074862;28;20147;-77
2022/01/16 12:46:31;;;;;;;34.08;8.70;;;6.00;99.90;;;;;;5074757;28;20378;-78
2022/01/16 12:49:02;;;;;;;18.80;8.35;;;6.00;99.90;;;;;;5074281;28;20053;-78
2022/01/16 12:51:34;;;;;;;22.17;8.65;;;6.00;99.90;;;;;;5074676;28;20405;-76
2022/01/16 12:54:11;;;;;;;20.15;7.47;;;6.00;99.90;;;;;;5074597;28;20549;-78
2022/01/16 12:56:49;;;;;;;18.52;7.22;;;6.10;99.90;;;;;;5056848;28;20044;-75
2022/01/16 12:59:22;;;;;;;16.63;7.30;;;6.00;99.90;;;;;;5074481;28;20045;-77
2022/01/16 13:01:49;;;;;;;21.92;7.13;;;7.00;99.90;;;;;;5074576;28;20036;-76
2022/01/16 13:04:33;;;;;;;15.07;6.57;;;6.10;99.90;;;;;;5074085;28;20044;-76
2022/01/16 13:07:03;;;;;;;15.30;7.03;;;6.10;99.90;;;;;;5074653;28;20047;-79
2022/01/16 13:09:29;;;;;;;25.75;6.05;;;6.40;99.90;;;;;;5056138;28;20059;-80
2022/01/16 13:12:00;;;;;;;16.67;5.90;;;6.10;99.90;;;;;;5075271;28;20036;-77
2022/01/16 13:14:32;;;;;;;16.00;5.20;;;6.50;99.90;;;;;;5077590;28;20037;-76
2022/01/16 13:16:59;;;;;;;;;;;6.30;99.90;;;;;;5076207;28;20048;-77
2022/01/16 13:19:38;;;;;;;12.93;4.95;;;6.10;99.90;;;;;;5074547;28;19924;-75
2022/01/16 13:24:37;;;;;;;18.23;5.63;;;6.10;99.90;;;;;;5074631;28;20044;-79
2022/01/16 13:27:12;;;;;;;16.52;5.03;;;6.10;99.90;;;;;;5075200;28;20121;-77
2022/01/16 13:29:43;;;;;;;14.75;5.45;;;6.10;99.90;;;;;;5073938;28;20056;-75